createdAt,value
2023-10-04T00:04:03.243Z,21.92
2023-10-04T00:09:08.065Z,21.63
2023-10-04T00:14:12.053Z,21.83
2023-10-04T00:19:15.762Z,21.57
2023-10-04T00:24:20.356Z,21.56
2023-10-04T00:29:23.612Z,21.41
2023-10-04T00:34:30.272Z,21.40
2023-10-04T00:39:35.681Z,21.43
2023-10-04T00:44:38.839Z,21.43
2023-10-04T00:49:46.876Z,21.37
2023-10-04T00:54:52.147Z,21.30
2023-10-04T00:59:55.328Z,21.26
2023-10-04T01:04:59.151Z,21.40
2023-10-04T01:10:04.603Z,21.51
2023-10-04T01:15:22.962Z,21.53
2023-10-04T01:20:31.895Z,21.68
2023-10-04T01:25:41.020Z,21.56
2023-10-04T01:30:45.622Z,21.57
2023-10-04T01:35:50.810Z,21.62
2023-10-04T01:40:58.290Z,21.63
2023-10-04T01:46:02.163Z,21.59
2023-10-04T01:51:07.954Z,21.62
2023-10-04T01:56:13.211Z,21.62
2023-10-04T02:01:18.088Z,21.71
2023-10-04T02:06:21.350Z,21.67
2023-10-04T02:11:26.031Z,21.77
2023-10-04T02:16:32.166Z,21.68
2023-10-04T02:21:39.776Z,21.52
2023-10-04T02:26:44.367Z,21.51
2023-10-04T02:31:47.544Z,21.14
2023-10-04T02:36:52.657Z,21.25
2023-10-04T02:41:58.200Z,21.45
2023-10-04T02:47:07.722Z,21.56
2023-10-04T02:52:13.477Z,21.63
2023-10-04T02:57:18.149Z,21.58
2023-10-04T03:02:22.980Z,21.61
2023-10-04T03:07:29.302Z,21.65
2023-10-04T03:12:36.780Z,21.67
2023-10-04T03:17:40.630Z,21.72
2023-10-04T03:22:43.995Z,21.70
2023-10-04T03:27:49.222Z,21.69
2023-10-04T03:32:54.182Z,21.69
2023-10-04T03:37:59.738Z,21.71
2023-10-04T03:43:07.103Z,21.69
2023-10-04T03:48:15.567Z,21.66
2023-10-04T03:53:21.850Z,21.69
2023-10-04T03:58:26.647Z,21.67
2023-10-04T04:03:30.194Z,21.66
2023-10-04T04:08:34.316Z,21.69
2023-10-04T04:13:39.875Z,21.68
2023-10-04T04:18:43.107Z,21.64
2023-10-04T04:23:47.507Z,21.56
2023-10-04T04:28:55.140Z,21.50
2023-10-04T04:33:59.884Z,21.52
2023-10-04T04:39:07.390Z,21.42
2023-10-04T04:44:12.738Z,21.43
2023-10-04T04:49:16.725Z,21.39
2023-10-04T04:54:20.993Z,21.40
2023-10-04T04:59:25.782Z,21.34
2023-10-04T05:04:30.952Z,21.34
2023-10-04T05:09:36.208Z,21.30
2023-10-04T05:14:40.804Z,21.25
2023-10-04T05:19:45.488Z,21.23
2023-10-04T05:24:48.730Z,21.17
2023-10-04T05:29:53.313Z,21.21
2023-10-04T05:34:56.485Z,21.09
2023-10-04T05:39:59.799Z,21.10
2023-10-04T05:45:06.308Z,21.03
2023-10-04T05:50:11.683Z,20.96
2023-10-04T05:55:18.201Z,20.94
2023-10-04T06:00:28.653Z,20.95
2023-10-04T06:05:35.035Z,21.01
2023-10-04T06:10:39.223Z,20.96
2023-10-04T06:15:45.841Z,20.99
2023-10-04T06:20:51.343Z,20.98
2023-10-04T06:25:54.583Z,20.94
2023-10-04T06:30:59.241Z,20.92
2023-10-04T06:36:02.442Z,20.90
2023-10-04T06:41:08.518Z,20.87
2023-10-04T06:46:13.740Z,20.87
2023-10-04T06:51:17.567Z,20.87
2023-10-04T06:56:23.223Z,20.88
2023-10-04T07:01:30.378Z,20.85
2023-10-04T07:06:34.317Z,20.90
2023-10-04T07:11:37.531Z,20.91
2023-10-04T07:16:42.932Z,20.95
2023-10-04T07:21:46.192Z,21.64
2023-10-04T07:26:54.137Z,22.55
2023-10-04T07:31:59.079Z,23.59
2023-10-04T07:37:02.359Z,23.87
2023-10-04T07:42:07.619Z,24.46
2023-10-04T07:47:12.286Z,24.76
2023-10-04T07:52:17.304Z,25.46
2023-10-04T07:57:20.477Z,25.51
2023-10-04T08:02:25.693Z,25.86
2023-10-04T08:07:28.953Z,26.34
2023-10-04T08:12:32.257Z,26.74
2023-10-04T08:17:37.043Z,27.13
2023-10-04T08:22:40.462Z,27.55
2023-10-04T08:27:43.533Z,27.23
2023-10-04T08:32:56.211Z,27.77
2023-10-04T08:38:01.666Z,27.68
2023-10-04T08:43:05.446Z,27.97
2023-10-04T08:48:12.273Z,28.10
2023-10-04T08:53:27.575Z,28.17
2023-10-04T08:58:32.068Z,27.65
2023-10-04T09:03:37.561Z,28.18
2023-10-04T09:08:43.952Z,29.46
2023-10-04T09:13:49.119Z,29.15
2023-10-04T09:19:10.228Z,29.64
2023-10-04T09:24:14.906Z,30.18
2023-10-04T09:29:29.920Z,29.88
2023-10-04T09:34:35.144Z,29.71
2023-10-04T09:39:38.451Z,29.70
2023-10-04T09:44:41.673Z,29.56
2023-10-04T09:49:52.860Z,30.01
2023-10-04T09:54:56.082Z,30.34
2023-10-04T10:00:01.322Z,30.14
2023-10-04T10:05:09.997Z,30.88
2023-10-04T10:10:18.200Z,30.83
2023-10-04T10:15:24.642Z,31.35
2023-10-04T10:20:29.801Z,31.55
2023-10-04T10:25:34.880Z,31.12
2023-10-04T10:30:38.900Z,31.20
2023-10-04T10:36:01.265Z,30.90
2023-10-04T10:41:05.391Z,31.18
2023-10-04T10:46:31.602Z,32.37
2023-10-04T10:51:46.303Z,31.91
2023-10-04T10:56:49.511Z,31.49
2023-10-04T11:01:53.951Z,32.05
2023-10-04T11:06:58.706Z,32.92
2023-10-04T11:12:04.235Z,33.25
2023-10-04T11:17:07.464Z,32.45
2023-10-04T11:22:13.704Z,32.74
2023-10-04T11:27:24.269Z,33.62
2023-10-04T11:32:31.924Z,34.14
2023-10-04T11:37:41.214Z,34.07
2023-10-04T11:42:47.339Z,34.23
2023-10-04T11:48:06.055Z,34.44
2023-10-04T11:53:13.101Z,34.16
2023-10-04T11:58:19.330Z,35.36
2023-10-04T12:03:23.221Z,34.63
2023-10-04T12:08:27.854Z,33.82
2023-10-04T12:13:31.722Z,34.66
2023-10-04T12:18:36.071Z,35.83
2023-10-04T12:23:42.957Z,35.03
2023-10-04T12:28:47.842Z,35.41
2023-10-04T12:33:53.437Z,36.37
2023-10-04T12:39:01.100Z,36.54
2023-10-04T12:44:06.238Z,36.79
2023-10-04T12:49:11.077Z,36.56
2023-10-04T12:54:18.508Z,36.86
2023-10-04T12:59:25.809Z,37.12
2023-10-04T13:04:30.226Z,36.61
2023-10-04T13:09:52.473Z,37.87
2023-10-04T13:15:01.443Z,37.01
2023-10-04T13:20:05.947Z,37.26
2023-10-04T13:25:10.932Z,37.85
2023-10-04T13:30:16.688Z,37.26
2023-10-04T13:35:21.577Z,37.54
2023-10-04T13:40:26.448Z,37.43
2023-10-04T13:45:30.924Z,37.69
2023-10-04T13:50:34.245Z,38.46
2023-10-04T13:55:40.109Z,39.50
2023-10-04T14:00:46.998Z,39.77
2023-10-04T14:05:54.986Z,40.25
2023-10-04T14:11:00.018Z,40.02
2023-10-04T14:16:03.834Z,39.96
2023-10-04T14:21:08.502Z,39.75
2023-10-04T14:26:14.679Z,39.81
2023-10-04T14:31:19.461Z,39.94
2023-10-04T14:36:23.266Z,39.74
2023-10-04T14:41:27.979Z,38.92
2023-10-04T14:46:33.640Z,38.84
2023-10-04T14:51:38.992Z,38.33
2023-10-04T14:56:44.455Z,37.76
2023-10-04T15:01:47.696Z,37.30
2023-10-04T15:06:51.455Z,36.69
2023-10-04T15:11:56.065Z,36.15
2023-10-04T15:16:59.283Z,35.71
2023-10-04T15:22:02.653Z,35.54
2023-10-04T15:27:07.757Z,35.26
2023-10-04T15:32:12.549Z,34.79
2023-10-04T15:37:16.838Z,34.24
2023-10-04T15:42:22.118Z,34.01
2023-10-04T15:47:25.317Z,33.31
2023-10-04T15:52:28.536Z,32.80
2023-10-04T15:57:34.473Z,32.63
2023-10-04T16:02:38.629Z,32.01
2023-10-04T16:07:41.912Z,31.66
2023-10-04T16:12:49.509Z,31.29
2023-10-04T16:17:52.773Z,31.04
2023-10-04T16:22:58.311Z,30.92
2023-10-04T16:28:03.042Z,30.35
2023-10-04T16:33:07.022Z,30.34
2023-10-04T16:38:10.243Z,29.96
2023-10-04T16:43:14.861Z,29.95
2023-10-04T16:48:18.029Z,29.71
2023-10-04T16:53:21.776Z,29.59
2023-10-04T16:58:27.372Z,29.47
2023-10-04T17:03:30.686Z,29.30
2023-10-04T17:08:34.091Z,29.17
2023-10-04T17:13:38.445Z,29.00
2023-10-04T17:18:41.621Z,28.80
2023-10-04T17:23:44.874Z,28.61
2023-10-04T17:28:49.436Z,28.42
2023-10-04T17:33:52.681Z,28.33
2023-10-04T17:38:56.740Z,28.13
2023-10-04T17:44:01.356Z,28.10
2023-10-04T17:49:04.760Z,27.87
2023-10-04T17:54:08.394Z,27.72
2023-10-04T17:59:13.216Z,27.48
2023-10-04T18:04:17.564Z,27.41
2023-10-04T18:09:20.974Z,27.33
2023-10-04T18:14:26.102Z,27.18
2023-10-04T18:19:31.104Z,27.07
2023-10-04T18:24:34.433Z,27.00
2023-10-04T18:29:39.320Z,26.79
2023-10-04T18:34:42.621Z,26.65
2023-10-04T18:39:45.919Z,26.51
2023-10-04T18:44:50.573Z,26.51
2023-10-04T18:49:53.793Z,26.38
2023-10-04T18:54:57.097Z,26.27
2023-10-04T19:00:03.073Z,26.10
2023-10-04T19:05:08.389Z,25.98
2023-10-04T19:10:13.189Z,25.74
2023-10-04T19:15:18.322Z,25.66
2023-10-04T19:20:24.742Z,25.55
2023-10-04T19:25:27.968Z,25.46
2023-10-04T19:30:35.388Z,25.15
2023-10-04T19:35:38.829Z,25.17
2023-10-04T19:40:42.238Z,24.91
2023-10-04T19:45:47.074Z,24.95
2023-10-04T19:50:51.907Z,24.91
2023-10-04T19:55:55.595Z,24.88
2023-10-04T20:01:00.324Z,24.77
2023-10-04T20:06:04.263Z,24.71
2023-10-04T20:11:08.835Z,24.55
2023-10-04T20:16:14.027Z,24.57
2023-10-04T20:21:17.665Z,24.49
2023-10-04T20:26:20.925Z,24.47
2023-10-04T20:31:26.021Z,24.41
2023-10-04T20:36:29.333Z,24.25
2023-10-04T20:41:34.365Z,24.19
2023-10-04T20:46:40.407Z,24.00
2023-10-04T20:51:45.216Z,23.93
2023-10-04T20:56:48.784Z,23.81
2023-10-04T21:01:54.913Z,23.70
2023-10-04T21:06:59.030Z,23.53
2023-10-04T21:12:03.168Z,23.47
2023-10-04T21:17:08.878Z,23.09
2023-10-04T21:22:12.110Z,23.48
2023-10-04T21:27:24.160Z,23.35
2023-10-04T21:32:37.053Z,23.42
2023-10-04T21:37:42.026Z,23.27
2023-10-04T21:42:47.215Z,23.20
2023-10-04T21:48:01.941Z,23.35
2023-10-04T21:53:05.655Z,22.96
2023-10-04T21:58:10.827Z,22.90
2023-10-04T22:03:17.820Z,22.49
2023-10-04T22:08:21.096Z,22.59
2023-10-04T22:13:28.334Z,22.61
2023-10-04T22:18:33.477Z,22.64
2023-10-04T22:23:36.693Z,22.19
2023-10-04T22:28:42.845Z,22.06
2023-10-04T22:33:49.859Z,22.33
2023-10-04T22:38:53.069Z,22.34
2023-10-04T22:43:56.729Z,22.18
2023-10-04T22:49:03.445Z,22.26
2023-10-04T22:54:07.812Z,21.88
2023-10-04T22:59:13.992Z,21.99
2023-10-04T23:04:21.352Z,21.96
2023-10-04T23:09:26.986Z,21.98
2023-10-04T23:14:35.276Z,21.89
2023-10-04T23:19:47.401Z,21.50
2023-10-04T23:24:56.044Z,21.32
2023-10-04T23:30:00.306Z,21.49
2023-10-04T23:35:10.782Z,21.85
2023-10-04T23:40:19.422Z,21.98
2023-10-04T23:45:25.394Z,22.11
2023-10-04T23:50:30.046Z,21.82
2023-10-04T23:55:37.989Z,21.82
